createdAt,value
2023-01-13T00:03:50.184Z,84.30
2023-01-13T00:19:49.005Z,84.20
2023-01-13T00:22:15.739Z,84.30
2023-01-13T00:24:42.455Z,84.20
2023-01-13T00:27:09.191Z,84.10
2023-01-13T00:29:36.560Z,84.10
2023-01-13T00:32:03.993Z,84.10
2023-01-13T00:34:31.082Z,84.10
2023-01-13T00:36:57.810Z,84.10
2023-01-13T00:39:24.595Z,84.00
2023-01-13T00:41:51.507Z,83.90
2023-01-13T00:44:18.301Z,84.00
2023-01-13T00:46:45.038Z,83.90
2023-01-13T00:49:11.982Z,83.90
2023-01-13T00:51:38.710Z,83.90
2023-01-13T00:54:05.504Z,83.90
2023-01-13T00:56:40.283Z,83.90
2023-01-13T00:59:11.351Z,83.90
2023-01-13T01:01:38.412Z,83.80
2023-01-13T01:04:05.316Z,83.80
2023-01-13T01:06:32.079Z,83.80
2023-01-13T01:08:58.787Z,83.70
2023-01-13T01:11:30.040Z,83.60
2023-01-13T01:13:57.907Z,83.60
2023-01-13T01:16:25.549Z,83.60
2023-01-13T01:18:52.856Z,83.70
2023-01-13T01:21:19.986Z,83.60
2023-01-13T01:23:46.788Z,83.60
2023-01-13T01:26:15.351Z,83.60
2023-01-13T01:28:42.320Z,83.60
2023-01-13T01:31:10.728Z,83.60
2023-01-13T01:33:37.463Z,83.60
2023-01-13T01:36:04.362Z,83.60
2023-01-13T01:38:31.075Z,83.50
2023-01-13T01:40:57.977Z,83.40
2023-01-13T01:43:51.545Z,83.40
2023-01-13T01:46:18.337Z,83.40
2023-01-13T01:48:45.079Z,83.40
2023-01-13T01:51:12.502Z,83.40
2023-01-13T01:53:39.198Z,83.30
2023-01-13T01:56:06.031Z,83.30
2023-01-13T01:58:39.082Z,83.30
2023-01-13T02:01:05.862Z,83.30
2023-01-13T02:03:32.614Z,83.30
2023-01-13T02:05:59.332Z,83.20
2023-01-13T02:08:26.060Z,83.20
2023-01-13T02:10:53.864Z,83.20
2023-01-13T02:13:20.591Z,83.20
2023-01-13T02:16:09.634Z,83.10
2023-01-13T02:19:20.941Z,83.20
2023-01-13T02:22:08.089Z,83.20
2023-01-13T02:24:34.808Z,83.20
2023-01-13T02:27:35.652Z,83.20
2023-01-13T02:30:11.650Z,83.20
2023-01-13T02:32:53.150Z,83.20
2023-01-13T02:35:28.983Z,83.20
2023-01-13T02:37:55.754Z,83.20
2023-01-13T02:40:33.006Z,83.20
2023-01-13T02:43:18.742Z,83.20
2023-01-13T02:45:59.305Z,83.20
2023-01-13T02:48:26.033Z,83.20
2023-01-13T02:51:07.420Z,83.20
2023-01-13T02:53:47.329Z,83.10
2023-01-13T02:56:14.451Z,83.00
2023-01-13T02:58:41.280Z,83.00
2023-01-13T03:01:08.152Z,83.00
2023-01-13T03:03:34.916Z,83.00
2023-01-13T03:06:20.541Z,82.90
2023-01-13T03:08:53.455Z,83.00
2023-01-13T03:11:20.086Z,82.90
2023-01-13T03:13:58.985Z,82.80
2023-01-13T03:16:47.431Z,82.90
2023-01-13T03:19:30.922Z,82.80
2023-01-13T03:22:02.759Z,82.80
2023-01-13T03:24:39.760Z,82.80
2023-01-13T03:27:27.842Z,82.80
2023-01-13T03:29:58.460Z,82.80
2023-01-13T03:32:35.439Z,82.70
2023-01-13T03:35:08.082Z,82.70
2023-01-13T03:37:36.536Z,82.70
2023-01-13T03:40:25.487Z,82.70
2023-01-13T03:43:03.015Z,82.70
2023-01-13T03:45:29.866Z,82.70
2023-01-13T03:47:56.559Z,82.80
2023-01-13T03:50:35.707Z,82.70
2023-01-13T03:53:10.171Z,82.70
2023-01-13T03:55:40.244Z,82.70
2023-01-13T03:58:15.616Z,82.70
2023-01-13T04:00:57.470Z,82.70
2023-01-13T04:03:36.737Z,82.60
2023-01-13T04:06:35.456Z,82.70
2023-01-13T04:09:09.426Z,82.50
2023-01-13T04:11:39.899Z,82.60
2023-01-13T04:14:08.997Z,82.60
2023-01-13T04:16:37.615Z,82.60
2023-01-13T04:19:04.532Z,82.50
2023-01-13T04:21:31.258Z,82.50
2023-01-13T04:23:57.987Z,82.50
2023-01-13T04:26:24.709Z,82.50
2023-01-13T04:28:51.379Z,82.50
2023-01-13T04:31:18.248Z,82.50
2023-01-13T04:33:44.933Z,82.40
2023-01-13T04:36:11.707Z,82.30
2023-01-13T04:38:38.374Z,82.30
2023-01-13T04:41:05.199Z,82.20
2023-01-13T04:43:31.891Z,82.30
2023-01-13T04:45:58.579Z,82.30
2023-01-13T04:48:25.299Z,82.40
2023-01-13T04:50:52.019Z,82.30
2023-01-13T04:53:18.697Z,82.40
2023-01-13T04:55:45.416Z,82.50
2023-01-13T04:58:12.088Z,82.50
2023-01-13T05:00:38.827Z,82.50
2023-01-13T05:03:05.556Z,82.50
2023-01-13T05:05:32.403Z,82.50
2023-01-13T05:07:59.171Z,82.50
2023-01-13T05:10:26.291Z,82.50
2023-01-13T05:12:52.987Z,82.50
2023-01-13T05:15:19.828Z,82.50
2023-01-13T05:17:46.578Z,82.50
2023-01-13T05:20:13.422Z,82.50
2023-01-13T05:22:40.182Z,82.50
2023-01-13T05:25:09.251Z,82.50
2023-01-13T05:27:35.972Z,82.50
2023-01-13T05:30:02.799Z,82.50
2023-01-13T05:32:29.521Z,82.50
2023-01-13T05:34:56.218Z,82.50
2023-01-13T05:37:23.625Z,82.40
2023-01-13T05:39:50.387Z,82.50
2023-01-13T05:42:17.104Z,82.40
2023-01-13T05:44:43.805Z,82.40
2023-01-13T05:47:10.727Z,82.40
2023-01-13T05:49:37.409Z,82.40
2023-01-13T05:52:04.222Z,82.40
2023-01-13T05:54:30.906Z,82.30
2023-01-13T05:56:57.608Z,82.40
2023-01-13T05:59:24.295Z,82.30
2023-01-13T06:01:51.009Z,82.40
2023-01-13T06:04:17.785Z,82.40
2023-01-13T06:06:44.481Z,82.40
2023-01-13T06:09:11.195Z,82.40
2023-01-13T06:11:37.919Z,82.50
2023-01-13T06:14:04.624Z,82.40
2023-01-13T06:16:31.364Z,82.40
2023-01-13T06:18:58.091Z,82.40
2023-01-13T06:21:24.793Z,82.40
2023-01-13T06:23:51.489Z,82.40
2023-01-13T06:26:19.933Z,82.50
2023-01-13T06:28:46.659Z,82.50
2023-01-13T06:31:13.517Z,82.40
2023-01-13T06:33:45.963Z,82.50
2023-01-13T06:36:15.370Z,82.50
2023-01-13T06:38:43.854Z,82.50
2023-01-13T06:41:10.606Z,82.50
2023-01-13T06:43:38.468Z,82.50
2023-01-13T06:46:06.200Z,82.40
2023-01-13T06:48:33.915Z,82.50
2023-01-13T06:51:01.196Z,82.50
2023-01-13T06:53:27.879Z,82.50
2023-01-13T06:55:54.542Z,82.50
2023-01-13T06:58:21.242Z,82.50
2023-01-13T07:00:48.089Z,82.50
2023-01-13T07:03:19.351Z,82.40
2023-01-13T07:05:52.768Z,82.50
2023-01-13T07:08:19.507Z,82.50
2023-01-13T07:10:46.247Z,82.50
2023-01-13T07:13:13.123Z,82.60
2023-01-13T07:15:41.918Z,82.50
2023-01-13T07:18:08.669Z,82.50
2023-01-13T07:20:35.380Z,82.40
2023-01-13T07:23:04.963Z,82.40
2023-01-13T07:25:31.682Z,82.30
2023-01-13T07:27:58.417Z,82.20
2023-01-13T07:30:25.125Z,82.10
2023-01-13T07:32:51.845Z,82.10
2023-01-13T07:35:18.583Z,82.00
2023-01-13T07:37:45.323Z,82.10
2023-01-13T07:40:12.243Z,82.20
2023-01-13T07:42:41.496Z,82.20
2023-01-13T07:45:10.886Z,82.20
2023-01-13T07:47:39.214Z,82.30
2023-01-13T07:50:06.777Z,82.30
2023-01-13T07:52:33.484Z,82.30
2023-01-13T07:55:00.314Z,82.30
2023-01-13T07:57:27.344Z,82.30
2023-01-13T07:59:54.909Z,82.40
2023-01-13T08:02:23.827Z,82.40
2023-01-13T08:04:50.623Z,82.40
2023-01-13T08:07:18.984Z,82.40
2023-01-13T08:09:45.716Z,82.50
2023-01-13T08:12:18.066Z,82.50
2023-01-13T08:14:47.764Z,82.50
2023-01-13T08:17:14.483Z,82.50
2023-01-13T08:19:41.241Z,82.50
2023-01-13T08:22:07.994Z,82.50
2023-01-13T08:24:34.730Z,82.50
2023-01-13T08:27:01.590Z,82.50
2023-01-13T08:29:28.295Z,82.50
2023-01-13T08:31:55.046Z,82.50
2023-01-13T08:34:23.217Z,82.40
2023-01-13T08:36:51.826Z,82.50
2023-01-13T08:39:18.527Z,82.50
2023-01-13T08:41:45.235Z,82.50
2023-01-13T08:44:17.664Z,82.50
2023-01-13T08:46:46.384Z,82.60
2023-01-13T08:49:13.121Z,82.50
2023-01-13T08:51:39.877Z,82.50
2023-01-13T08:54:06.724Z,82.50
2023-01-13T08:56:35.677Z,82.50
2023-01-13T08:59:02.584Z,82.50
2023-01-13T09:01:29.359Z,82.50
2023-01-13T09:03:56.350Z,82.50
2023-01-13T09:06:26.267Z,82.40
2023-01-13T09:08:55.348Z,82.40
2023-01-13T09:11:29.788Z,82.60
2023-01-13T09:13:56.491Z,82.40
2023-01-13T09:16:23.323Z,82.40
2023-01-13T09:18:50.043Z,82.30
2023-01-13T09:21:16.885Z,82.40
2023-01-13T09:23:43.684Z,82.30
2023-01-13T09:26:10.781Z,82.30
2023-01-13T09:28:37.521Z,82.30
2023-01-13T09:31:04.388Z,82.20
2023-01-13T09:33:31.112Z,82.20
2023-01-13T09:35:58.298Z,82.10
2023-01-13T09:38:25.048Z,82.10
2023-01-13T09:40:51.782Z,82.00
2023-01-13T09:43:20.043Z,82.10
2023-01-13T09:45:56.070Z,82.00
2023-01-13T09:48:30.689Z,82.10
2023-01-13T09:51:03.400Z,82.10
2023-01-13T09:53:34.418Z,82.10
2023-01-13T09:56:01.126Z,82.10
2023-01-13T09:58:27.970Z,81.90
2023-01-13T10:01:21.445Z,81.70
2023-01-13T10:03:48.242Z,81.50
2023-01-13T10:06:18.961Z,81.50
2023-01-13T10:08:46.534Z,81.40
2023-01-13T10:11:23.779Z,81.30
2023-01-13T10:13:52.635Z,80.90
2023-01-13T10:16:43.009Z,80.80
2023-01-13T10:19:19.216Z,80.50
2023-01-13T10:22:11.180Z,80.40
2023-01-13T10:24:56.201Z,80.00
2023-01-13T10:27:25.755Z,79.80
2023-01-13T10:29:52.524Z,80.10
2023-01-13T10:32:19.256Z,79.30
2023-01-13T10:34:50.382Z,78.50
2023-01-13T10:37:27.360Z,77.90
2023-01-13T10:40:00.552Z,77.40
2023-01-13T10:42:27.367Z,75.70
2023-01-13T10:44:59.139Z,74.40
2023-01-13T10:47:27.538Z,72.80
2023-01-13T10:50:01.844Z,71.10
2023-01-13T10:52:35.601Z,70.00
2023-01-13T10:55:02.597Z,70.20
2023-01-13T10:57:29.353Z,70.90
2023-01-13T10:59:56.183Z,71.80
2023-01-13T11:02:27.383Z,73.00
2023-01-13T11:04:54.285Z,74.10
2023-01-13T11:07:34.259Z,74.90
2023-01-13T11:10:27.255Z,75.40
2023-01-13T11:13:05.491Z,76.70
2023-01-13T11:15:43.211Z,76.40
2023-01-13T11:18:57.310Z,76.20
2023-01-13T11:21:37.250Z,75.20
2023-01-13T11:24:26.508Z,74.40
2023-01-13T11:27:04.560Z,73.00
2023-01-13T11:29:59.539Z,71.40
2023-01-13T11:32:41.605Z,70.40
2023-01-13T11:35:18.603Z,69.90
2023-01-13T11:38:01.623Z,70.10
2023-01-13T11:40:33.095Z,69.90
2023-01-13T11:43:34.626Z,69.90
2023-01-13T11:46:01.331Z,70.90
2023-01-13T11:48:30.580Z,71.80
2023-01-13T11:51:05.638Z,72.10
2023-01-13T11:53:50.705Z,72.40
2023-01-13T11:56:54.676Z,72.80
2023-01-13T11:59:39.631Z,72.80
2023-01-13T12:02:21.532Z,72.90
2023-01-13T12:05:15.340Z,73.00
2023-01-13T12:07:47.918Z,73.30
2023-01-13T12:10:36.277Z,73.90
2023-01-13T12:13:15.136Z,73.90
2023-01-13T12:15:51.179Z,74.00
2023-01-13T12:19:02.747Z,74.00
2023-01-13T12:21:51.420Z,73.70
2023-01-13T12:24:31.937Z,74.00
2023-01-13T12:27:36.269Z,73.90
2023-01-13T12:30:10.937Z,73.70
2023-01-13T12:32:40.287Z,73.90
2023-01-13T12:35:25.615Z,73.80
2023-01-13T12:38:17.306Z,73.90
2023-01-13T12:41:08.177Z,73.80
2023-01-13T12:43:36.791Z,73.50
2023-01-13T12:46:21.563Z,73.40
2023-01-13T12:48:51.422Z,73.00
2023-01-13T12:51:30.300Z,72.80
2023-01-13T12:53:56.990Z,73.10
2023-01-13T12:56:48.196Z,73.20
2023-01-13T12:59:19.844Z,73.10
2023-01-13T13:01:48.627Z,73.30
2023-01-13T13:04:18.759Z,73.40
2023-01-13T13:07:04.225Z,73.40
2023-01-13T13:09:43.539Z,73.50
2023-01-13T13:12:41.214Z,73.40
2023-01-13T13:15:25.682Z,73.20
2023-01-13T13:18:05.732Z,73.30
2023-01-13T13:20:58.388Z,73.30
2023-01-13T13:23:37.803Z,73.40
2023-01-13T13:26:22.433Z,73.50
2023-01-13T13:29:26.336Z,73.40
2023-01-13T13:31:58.550Z,73.20
2023-01-13T13:34:48.549Z,73.30
2023-01-13T13:37:27.214Z,73.20
2023-01-13T13:39:56.738Z,73.10
2023-01-13T13:42:25.132Z,73.10
2023-01-13T13:44:51.900Z,73.10
2023-01-13T13:47:18.684Z,73.10
2023-01-13T13:49:47.174Z,73.00
2023-01-13T13:52:20.889Z,73.10
2023-01-13T13:54:50.183Z,73.10
2023-01-13T13:57:26.619Z,73.10
2023-01-13T13:59:58.069Z,73.10
2023-01-13T14:02:30.000Z,73.10
2023-01-13T14:05:20.842Z,73.10
2023-01-13T14:07:52.422Z,72.90
2023-01-13T14:10:24.131Z,73.00
2023-01-13T14:12:51.108Z,73.10
2023-01-13T14:15:36.343Z,73.10
2023-01-13T14:18:04.694Z,72.90
2023-01-13T14:20:31.515Z,72.90
2023-01-13T14:22:58.260Z,73.10
2023-01-13T14:25:36.590Z,73.10
2023-01-13T14:28:25.154Z,73.20
2023-01-13T14:30:52.046Z,73.10
2023-01-13T14:33:38.791Z,73.20
2023-01-13T14:36:06.207Z,73.10
2023-01-13T14:38:32.937Z,73.00
2023-01-13T14:41:22.436Z,72.90
2023-01-13T14:43:49.950Z,72.70
2023-01-13T14:46:16.736Z,72.80
2023-01-13T14:48:43.583Z,72.90
2023-01-13T14:51:11.354Z,72.90
2023-01-13T14:53:39.089Z,72.90
2023-01-13T14:56:36.778Z,72.90
2023-01-13T14:59:35.608Z,72.80
2023-01-13T15:02:23.321Z,72.80
2023-01-13T15:04:50.093Z,72.90
2023-01-13T15:07:25.911Z,72.90
2023-01-13T15:09:54.782Z,72.80
2023-01-13T15:12:36.816Z,72.80
2023-01-13T15:15:20.571Z,72.80
2023-01-13T15:17:50.905Z,72.90
2023-01-13T15:20:19.023Z,73.00
2023-01-13T15:22:46.525Z,73.00
2023-01-13T15:25:13.385Z,73.00
2023-01-13T15:27:40.258Z,73.00
2023-01-13T15:30:14.715Z,73.00
2023-01-13T15:32:41.831Z,73.00
2023-01-13T15:35:15.954Z,73.10
2023-01-13T15:37:43.487Z,73.10
2023-01-13T15:40:25.462Z,73.20
2023-01-13T15:42:52.205Z,73.20
2023-01-13T15:45:18.986Z,73.30
2023-01-13T15:47:45.815Z,74.10
2023-01-13T15:50:16.414Z,73.30
2023-01-13T15:52:43.339Z,73.40
2023-01-13T15:55:10.854Z,73.40
2023-01-13T15:57:38.259Z,73.40
2023-01-13T16:00:16.473Z,73.50
2023-01-13T16:02:43.351Z,73.60
2023-01-13T16:05:10.508Z,73.60
2023-01-13T16:07:38.736Z,73.60
2023-01-13T16:10:07.058Z,73.80
2023-01-13T16:12:33.792Z,73.80
2023-01-13T16:15:00.635Z,73.80
2023-01-13T16:17:27.595Z,73.90
2023-01-13T16:19:54.476Z,73.90
2023-01-13T16:22:21.383Z,74.00
2023-01-13T16:24:48.155Z,74.10
2023-01-13T16:27:22.908Z,74.10
2023-01-13T16:29:50.228Z,74.20
2023-01-13T16:32:17.302Z,74.20
2023-01-13T16:34:44.155Z,74.30
2023-01-13T16:37:21.086Z,74.30
2023-01-13T16:39:47.935Z,74.40
2023-01-13T16:42:14.843Z,74.40
2023-01-13T16:44:41.665Z,74.40
2023-01-13T16:47:14.991Z,74.40
2023-01-13T16:49:41.792Z,74.60
2023-01-13T16:52:08.592Z,74.60
2023-01-13T16:54:35.417Z,74.60
2023-01-13T16:57:02.207Z,74.70
2023-01-13T16:59:29.171Z,74.60
2023-01-13T17:01:55.910Z,74.70
2023-01-13T17:04:22.819Z,74.60
2023-01-13T17:07:00.631Z,74.60
2023-01-13T17:09:28.590Z,74.70
2023-01-13T17:11:55.347Z,74.70
2023-01-13T17:14:22.366Z,74.70
2023-01-13T17:16:50.100Z,74.70
2023-01-13T17:19:17.831Z,74.80
2023-01-13T17:21:44.605Z,74.90
2023-01-13T17:24:11.350Z,74.90
2023-01-13T17:26:48.861Z,75.00
2023-01-13T17:29:24.589Z,75.10
2023-01-13T17:31:51.643Z,75.20
2023-01-13T17:34:18.770Z,75.20
2023-01-13T17:36:45.616Z,75.30
2023-01-13T17:39:16.857Z,75.30
2023-01-13T17:41:43.903Z,75.30
2023-01-13T17:44:13.525Z,76.10
2023-01-13T17:46:40.493Z,75.50
2023-01-13T17:49:10.239Z,75.50
2023-01-13T17:51:40.381Z,75.60
2023-01-13T17:54:07.643Z,75.50
2023-01-13T17:56:34.463Z,75.70
2023-01-13T17:59:01.203Z,75.60
2023-01-13T18:01:28.188Z,75.70
2023-01-13T18:03:55.060Z,75.80
2023-01-13T18:06:22.862Z,75.80
2023-01-13T18:08:49.719Z,75.80
2023-01-13T18:11:17.815Z,75.80
2023-01-13T18:13:45.321Z,75.90
2023-01-13T18:16:14.116Z,76.00
2023-01-13T18:18:42.328Z,76.00
2023-01-13T18:21:17.028Z,76.10
2023-01-13T18:23:43.770Z,76.10
2023-01-13T18:26:17.634Z,76.50
2023-01-13T18:28:44.419Z,76.30
2023-01-13T18:31:11.200Z,76.30
2023-01-13T18:33:38.013Z,76.30
2023-01-13T18:36:08.429Z,76.30
2023-01-13T18:38:35.219Z,76.40
2023-01-13T18:41:04.371Z,76.50
2023-01-13T18:43:33.284Z,76.50
2023-01-13T18:46:00.039Z,76.60
2023-01-13T18:48:26.904Z,76.60
2023-01-13T18:50:53.733Z,76.70
2023-01-13T18:53:20.458Z,77.50
2023-01-13T18:55:47.152Z,76.80
2023-01-13T18:58:13.947Z,76.80
2023-01-13T19:00:40.776Z,76.80
2023-01-13T19:05:36.097Z,77.00
2023-01-13T19:08:03.570Z,77.00
2023-01-13T19:10:30.287Z,77.10
2023-01-13T19:12:57.040Z,77.10
2023-01-13T19:15:23.787Z,77.10
2023-01-13T19:17:50.560Z,77.10
2023-01-13T19:20:17.402Z,77.20
2023-01-13T19:22:44.327Z,77.30
2023-01-13T19:25:11.096Z,77.30
2023-01-13T19:27:37.840Z,77.40
2023-01-13T19:30:05.057Z,77.40
2023-01-13T19:32:32.536Z,77.40
2023-01-13T19:34:59.450Z,77.60
2023-01-13T19:37:26.482Z,77.60
2023-01-13T19:39:53.373Z,77.60
2023-01-13T19:42:20.103Z,78.50
2023-01-13T19:44:46.972Z,77.70
2023-01-13T19:47:13.812Z,77.70
2023-01-13T19:49:40.549Z,77.70
2023-01-13T19:52:09.374Z,77.70
2023-01-13T19:54:36.289Z,77.80
2023-01-13T19:57:03.070Z,77.80
2023-01-13T19:59:29.819Z,77.80
2023-01-13T20:01:57.184Z,77.70
2023-01-13T20:04:24.248Z,77.80
2023-01-13T20:06:50.930Z,77.80
2023-01-13T20:09:17.675Z,77.90
2023-01-13T20:11:44.387Z,77.90
2023-01-13T20:14:11.503Z,77.90
2023-01-13T20:16:41.350Z,77.90
2023-01-13T20:19:10.456Z,78.00
2023-01-13T20:21:39.577Z,78.00
2023-01-13T20:24:06.904Z,78.00
2023-01-13T20:26:33.600Z,78.00
2023-01-13T20:29:00.289Z,78.10
2023-01-13T20:31:27.044Z,78.10
2023-01-13T20:33:53.937Z,78.10
2023-01-13T20:36:30.642Z,78.20
2023-01-13T20:38:58.825Z,78.40
2023-01-13T20:41:26.018Z,78.30
2023-01-13T20:43:55.132Z,78.30
2023-01-13T20:46:21.925Z,78.40
2023-01-13T20:48:48.902Z,78.40
2023-01-13T20:51:15.688Z,78.50
2023-01-13T20:53:42.459Z,78.50
2023-01-13T20:56:09.216Z,78.50
2023-01-13T20:58:43.265Z,78.50
2023-01-13T21:01:13.279Z,78.60
2023-01-13T21:03:40.055Z,78.60
2023-01-13T21:06:06.995Z,78.50
2023-01-13T21:08:33.727Z,78.60
2023-01-13T21:11:03.676Z,78.70
2023-01-13T21:13:31.869Z,78.70
2023-01-13T21:15:58.567Z,78.70
2023-01-13T21:18:25.337Z,78.70
2023-01-13T21:20:52.086Z,78.70
2023-01-13T21:23:18.954Z,78.70
2023-01-13T21:25:45.764Z,78.80
2023-01-13T21:28:12.517Z,78.80
2023-01-13T21:30:39.830Z,78.80
2023-01-13T21:33:08.231Z,78.90
2023-01-13T21:35:54.998Z,78.80
2023-01-13T21:38:22.233Z,78.80
2023-01-13T21:40:59.064Z,78.80
2023-01-13T21:43:25.776Z,78.90
2023-01-13T21:45:52.507Z,78.90
2023-01-13T21:48:21.696Z,78.90
2023-01-13T21:50:48.383Z,79.00
2023-01-13T21:53:15.234Z,79.00
2023-01-13T21:55:42.667Z,79.10
2023-01-13T21:58:12.473Z,79.20
2023-01-13T22:00:40.309Z,79.20
2023-01-13T22:03:07.487Z,79.20
2023-01-13T22:05:34.346Z,79.30
2023-01-13T22:08:01.103Z,79.20
2023-01-13T22:10:28.992Z,79.30
2023-01-13T22:12:57.293Z,79.40
2023-01-13T22:15:24.153Z,79.50
2023-01-13T22:17:51.155Z,79.50
2023-01-13T22:20:18.074Z,79.60
2023-01-13T22:22:45.162Z,79.60
2023-01-13T22:25:13.093Z,79.70
2023-01-13T22:27:39.837Z,79.70
2023-01-13T22:30:12.889Z,79.70
2023-01-13T22:32:39.671Z,79.90
2023-01-13T22:35:07.525Z,79.80
2023-01-13T22:37:34.294Z,79.90
2023-01-13T22:40:01.019Z,79.90
2023-01-13T22:42:27.827Z,80.00
2023-01-13T22:44:54.644Z,79.90
2023-01-13T22:47:21.411Z,80.00
2023-01-13T22:49:48.148Z,80.00
2023-01-13T22:52:16.673Z,80.00
2023-01-13T22:54:43.642Z,80.10
2023-01-13T22:57:10.565Z,80.10
2023-01-13T22:59:37.382Z,80.20
2023-01-13T23:02:04.111Z,80.20
2023-01-13T23:04:30.919Z,80.40
2023-01-13T23:06:57.615Z,80.40
2023-01-13T23:09:24.379Z,80.40
2023-01-13T23:11:51.085Z,80.40
2023-01-13T23:14:17.819Z,80.40
2023-01-13T23:16:44.604Z,80.50
2023-01-13T23:19:13.546Z,80.60
2023-01-13T23:21:40.307Z,80.60
2023-01-13T23:24:07.596Z,80.60
2023-01-13T23:26:34.464Z,80.70
2023-01-13T23:29:05.696Z,80.70
2023-01-13T23:31:32.511Z,80.70
2023-01-13T23:33:59.574Z,80.70
2023-01-13T23:36:27.115Z,80.70
2023-01-13T23:38:54.057Z,80.80
2023-01-13T23:41:24.942Z,80.80
2023-01-13T23:43:55.917Z,80.90
2023-01-13T23:46:22.757Z,80.90
2023-01-13T23:48:49.895Z,80.90
2023-01-13T23:51:16.704Z,81.00
2023-01-13T23:53:45.847Z,81.00
2023-01-13T23:56:17.263Z,81.00
2023-01-13T23:58:44.320Z,81.10
